createdAt,value
2023-05-05T00:00:33.458Z,10.94
2023-05-05T00:03:02.126Z,10.94
2023-05-05T00:05:32.563Z,10.89
2023-05-05T00:08:01.035Z,10.94
2023-05-05T00:10:29.452Z,10.97
2023-05-05T00:12:59.582Z,10.99
2023-05-05T00:15:29.355Z,11.01
2023-05-05T00:17:57.727Z,11.00
2023-05-05T00:20:26.294Z,10.96
2023-05-05T00:22:54.919Z,11.02
2023-05-05T00:25:23.523Z,10.99
2023-05-05T00:27:52.843Z,11.06
2023-05-05T00:30:23.040Z,11.02
2023-05-05T00:32:52.302Z,11.06
2023-05-05T00:35:20.982Z,11.13
2023-05-05T00:37:49.736Z,11.14
2023-05-05T00:40:19.133Z,11.10
2023-05-05T00:42:51.043Z,11.12
2023-05-05T00:45:22.174Z,11.15
2023-05-05T00:47:55.051Z,11.16
2023-05-05T00:50:25.295Z,11.12
2023-05-05T00:52:56.801Z,11.15
2023-05-05T00:55:27.102Z,11.15
2023-05-05T00:57:55.742Z,11.17
2023-05-05T01:00:24.550Z,11.16
2023-05-05T01:02:55.202Z,11.21
2023-05-05T01:05:25.370Z,11.25
2023-05-05T01:08:08.278Z,11.27
2023-05-05T01:10:42.597Z,11.25
2023-05-05T01:13:26.131Z,11.27
2023-05-05T01:16:02.835Z,11.26
2023-05-05T01:18:41.483Z,11.30
2023-05-05T01:21:15.558Z,11.30
2023-05-05T01:24:07.317Z,11.36
2023-05-05T01:26:52.692Z,11.39
2023-05-05T01:29:56.781Z,11.33
2023-05-05T01:32:28.576Z,11.33
2023-05-05T01:35:02.173Z,11.34
2023-05-05T01:37:39.483Z,11.33
2023-05-05T01:40:11.174Z,11.38
2023-05-05T01:42:43.784Z,11.30
2023-05-05T01:45:18.367Z,11.28
2023-05-05T01:47:49.386Z,11.17
2023-05-05T01:50:20.752Z,11.13
2023-05-05T01:52:50.089Z,11.11
2023-05-05T01:55:20.716Z,11.06
2023-05-05T01:57:50.757Z,10.98
2023-05-05T02:00:21.374Z,10.95
2023-05-05T02:02:52.596Z,10.99
2023-05-05T02:05:23.337Z,10.91
2023-05-05T02:07:56.580Z,10.92
2023-05-05T02:10:26.038Z,10.92
2023-05-05T02:12:55.525Z,10.94
2023-05-05T02:15:26.814Z,10.96
2023-05-05T02:17:58.111Z,10.96
2023-05-05T02:20:30.851Z,10.98
2023-05-05T02:23:01.524Z,10.98
2023-05-05T02:25:45.200Z,10.98
2023-05-05T02:28:20.110Z,11.05
2023-05-05T02:30:53.947Z,11.00
2023-05-05T02:33:33.807Z,10.97
2023-05-05T02:36:08.813Z,10.97
2023-05-05T02:38:41.832Z,11.01
2023-05-05T02:41:15.156Z,11.04
2023-05-05T02:43:45.127Z,10.99
2023-05-05T02:46:14.503Z,11.08
2023-05-05T02:48:45.126Z,10.97
2023-05-05T02:51:13.948Z,11.05
2023-05-05T02:53:42.653Z,11.00
2023-05-05T02:56:23.655Z,11.07
2023-05-05T02:58:56.173Z,10.98
2023-05-05T03:01:33.806Z,10.95
2023-05-05T03:04:10.586Z,10.94
2023-05-05T03:06:43.326Z,10.96
2023-05-05T03:09:17.802Z,11.00
2023-05-05T03:11:52.632Z,10.98
2023-05-05T03:14:22.684Z,11.03
2023-05-05T03:16:51.834Z,11.00
2023-05-05T03:19:24.848Z,10.95
2023-05-05T03:21:53.866Z,10.94
2023-05-05T03:24:23.428Z,10.94
2023-05-05T03:26:53.918Z,11.00
2023-05-05T03:29:22.483Z,10.97
2023-05-05T03:31:51.255Z,10.92
2023-05-05T03:34:19.854Z,10.95
2023-05-05T03:36:50.090Z,10.98
2023-05-05T03:39:19.417Z,10.97
2023-05-05T03:41:48.201Z,10.98
2023-05-05T03:44:16.925Z,10.94
2023-05-05T03:46:45.507Z,11.15
2023-05-05T03:49:14.103Z,11.04
2023-05-05T03:51:43.185Z,11.04
2023-05-05T03:54:12.891Z,10.99
2023-05-05T03:56:43.772Z,10.98
2023-05-05T03:59:12.077Z,11.06
2023-05-05T04:01:40.790Z,11.03
2023-05-05T04:04:09.855Z,10.99
2023-05-05T04:06:38.611Z,11.05
2023-05-05T04:09:07.390Z,11.01
2023-05-05T04:11:37.228Z,11.15
2023-05-05T04:14:05.798Z,11.11
2023-05-05T04:16:34.249Z,11.16
2023-05-05T04:19:02.912Z,11.14
2023-05-05T04:21:31.751Z,11.26
2023-05-05T04:24:00.080Z,11.20
2023-05-05T04:26:28.542Z,11.22
2023-05-05T04:28:58.482Z,11.19
2023-05-05T04:31:27.149Z,11.20
2023-05-05T04:33:56.706Z,11.18
2023-05-05T04:36:25.483Z,11.22
2023-05-05T04:38:54.129Z,11.24
2023-05-05T04:41:23.210Z,11.16
2023-05-05T04:43:51.850Z,11.14
2023-05-05T04:46:22.114Z,11.16
2023-05-05T04:48:50.652Z,11.14
2023-05-05T04:51:19.433Z,11.24
2023-05-05T04:53:48.360Z,11.18
2023-05-05T04:56:18.102Z,11.20
2023-05-05T04:58:46.510Z,11.32
2023-05-05T05:01:15.351Z,11.29
2023-05-05T05:03:46.998Z,11.29
2023-05-05T05:06:16.130Z,11.40
2023-05-05T05:08:44.499Z,11.33
2023-05-05T05:11:13.984Z,11.35
2023-05-05T05:13:43.005Z,11.31
2023-05-05T05:16:11.752Z,11.37
2023-05-05T05:18:40.403Z,11.33
2023-05-05T05:21:10.594Z,11.39
2023-05-05T05:23:39.071Z,11.34
2023-05-05T05:26:07.561Z,11.48
2023-05-05T05:28:36.151Z,11.33
2023-05-05T05:31:05.076Z,11.30
2023-05-05T05:33:33.541Z,11.26
2023-05-05T05:36:02.147Z,11.23
2023-05-05T05:38:32.152Z,11.24
2023-05-05T05:41:00.443Z,11.18
2023-05-05T05:43:29.222Z,11.21
2023-05-05T05:45:57.649Z,11.23
2023-05-05T05:48:28.936Z,11.22
2023-05-05T05:50:57.741Z,11.25
2023-05-05T05:53:26.299Z,11.27
2023-05-05T05:55:56.154Z,11.24
2023-05-05T05:58:24.622Z,11.24
2023-05-05T06:00:53.129Z,11.27
2023-05-05T06:03:22.585Z,11.29
2023-05-05T06:05:53.431Z,11.33
2023-05-05T06:08:24.314Z,11.38
2023-05-05T06:10:53.706Z,11.50
2023-05-05T06:13:23.790Z,11.51
2023-05-05T06:15:52.062Z,11.62
2023-05-05T06:18:20.648Z,11.69
2023-05-05T06:20:51.888Z,11.71
2023-05-05T06:23:20.550Z,11.76
2023-05-05T06:25:49.040Z,11.83
2023-05-05T06:28:17.926Z,11.88
2023-05-05T06:30:47.617Z,11.93
2023-05-05T06:33:15.902Z,12.02
2023-05-05T06:35:44.465Z,12.18
2023-05-05T06:38:13.644Z,12.12
2023-05-05T06:40:42.259Z,12.19
2023-05-05T06:43:11.391Z,12.32
2023-05-05T06:45:40.062Z,12.33
2023-05-05T06:48:10.376Z,12.41
2023-05-05T06:50:38.602Z,12.41
2023-05-05T06:53:07.120Z,12.50
2023-05-05T06:55:35.617Z,12.58
2023-05-05T06:58:04.340Z,12.69
2023-05-05T07:00:33.028Z,12.76
2023-05-05T07:03:01.573Z,12.94
2023-05-05T07:05:31.570Z,12.94
2023-05-05T07:08:00.548Z,13.00
2023-05-05T07:10:29.637Z,13.07
2023-05-05T07:12:58.330Z,13.08
2023-05-05T07:15:29.608Z,13.10
2023-05-05T07:17:58.916Z,13.22
2023-05-05T07:20:27.558Z,13.21
2023-05-05T07:22:57.756Z,13.21
2023-05-05T07:25:26.081Z,13.21
2023-05-05T07:27:54.638Z,13.20
2023-05-05T07:30:25.156Z,13.22
2023-05-05T07:32:55.523Z,13.17
2023-05-05T07:35:24.885Z,13.24
2023-05-05T07:37:53.427Z,13.22
2023-05-05T07:40:23.524Z,13.36
2023-05-05T07:42:52.197Z,13.39
2023-05-05T07:45:20.930Z,13.41
2023-05-05T07:47:49.571Z,13.47
2023-05-05T07:50:18.769Z,13.44
2023-05-05T07:52:51.783Z,13.52
2023-05-05T07:55:29.426Z,13.57
2023-05-05T07:57:57.965Z,13.67
2023-05-05T08:00:26.583Z,13.71
2023-05-05T08:02:55.035Z,13.66
2023-05-05T08:05:23.457Z,13.61
2023-05-05T08:07:52.026Z,13.50
2023-05-05T08:10:22.374Z,13.47
2023-05-05T08:12:52.807Z,13.39
2023-05-05T08:15:21.728Z,13.53
2023-05-05T08:17:51.701Z,13.45
2023-05-05T08:20:21.402Z,13.58
2023-05-05T08:22:51.824Z,13.70
2023-05-05T08:25:20.708Z,13.84
2023-05-05T08:27:49.033Z,13.85
2023-05-05T08:30:21.367Z,13.91
2023-05-05T08:32:49.747Z,13.97
2023-05-05T08:35:18.525Z,14.01
2023-05-05T08:37:46.905Z,14.14
2023-05-05T08:40:16.440Z,14.25
2023-05-05T08:42:46.886Z,14.26
2023-05-05T08:45:15.399Z,14.34
2023-05-05T08:47:45.756Z,14.27
2023-05-05T08:50:16.123Z,14.21
2023-05-05T08:52:47.240Z,14.17
2023-05-05T08:55:26.751Z,14.26
2023-05-05T08:57:58.204Z,14.33
2023-05-05T09:00:27.787Z,14.24
2023-05-05T09:02:59.290Z,14.23
2023-05-05T09:05:28.742Z,14.34
2023-05-05T09:08:14.399Z,14.16
2023-05-05T09:10:43.224Z,14.09
2023-05-05T09:13:12.162Z,14.14
2023-05-05T09:15:42.225Z,14.28
2023-05-05T09:18:13.353Z,14.35
2023-05-05T09:20:42.621Z,14.83
2023-05-05T09:23:12.573Z,14.88
2023-05-05T09:25:41.662Z,15.05
2023-05-05T09:28:11.743Z,15.16
2023-05-05T09:30:41.337Z,15.11
2023-05-05T09:33:11.919Z,15.08
2023-05-05T09:35:51.605Z,15.09
2023-05-05T09:38:20.900Z,15.23
2023-05-05T09:40:51.023Z,15.48
2023-05-05T09:43:20.906Z,15.68
2023-05-05T09:45:50.298Z,15.61
2023-05-05T09:48:27.106Z,15.58
2023-05-05T09:50:56.360Z,15.45
2023-05-05T09:53:25.611Z,15.51
2023-05-05T09:55:55.558Z,15.37
2023-05-05T09:58:26.270Z,15.23
2023-05-05T10:00:55.406Z,15.19
2023-05-05T10:03:25.940Z,15.22
2023-05-05T10:05:57.063Z,15.23
2023-05-05T10:08:27.408Z,15.16
2023-05-05T10:10:57.204Z,15.17
2023-05-05T10:13:27.198Z,15.22
2023-05-05T10:15:56.791Z,15.22
2023-05-05T10:18:28.480Z,15.22
2023-05-05T10:20:59.747Z,15.17
2023-05-05T10:23:37.317Z,15.18
2023-05-05T10:26:09.563Z,15.15
2023-05-05T10:28:47.000Z,15.25
2023-05-05T10:31:26.256Z,15.62
2023-05-05T10:34:05.133Z,15.84
2023-05-05T10:36:34.868Z,16.22
2023-05-05T10:39:07.120Z,16.16
2023-05-05T10:41:37.032Z,16.13
2023-05-05T10:44:07.771Z,16.45
2023-05-05T10:46:36.673Z,16.61
2023-05-05T10:49:18.642Z,16.81
2023-05-05T10:51:55.397Z,17.00
2023-05-05T10:54:32.206Z,17.12
2023-05-05T10:57:02.784Z,17.31
2023-05-05T10:59:45.531Z,17.65
2023-05-05T11:02:26.826Z,17.82
2023-05-05T11:05:15.505Z,17.56
2023-05-05T11:07:44.185Z,17.53
2023-05-05T11:10:14.295Z,17.22
2023-05-05T11:13:21.590Z,17.21
2023-05-05T11:15:52.576Z,16.95
2023-05-05T11:18:34.167Z,16.82
2023-05-05T11:21:18.476Z,17.02
2023-05-05T11:23:52.782Z,17.05
2023-05-05T11:26:52.152Z,17.15
2023-05-05T11:29:20.894Z,17.54
2023-05-05T11:32:16.083Z,17.74
2023-05-05T11:34:51.638Z,18.04
2023-05-05T11:37:25.844Z,18.39
2023-05-05T11:40:05.311Z,18.36
2023-05-05T11:42:34.468Z,18.63
2023-05-05T11:45:04.265Z,18.79
2023-05-05T11:47:34.296Z,18.15
2023-05-05T11:50:23.535Z,18.43
2023-05-05T11:52:53.596Z,18.16
2023-05-05T11:55:25.769Z,17.92
2023-05-05T11:57:55.574Z,18.16
2023-05-05T12:00:34.582Z,18.18
2023-05-05T12:03:03.347Z,18.40
2023-05-05T12:05:33.658Z,18.47
2023-05-05T12:08:06.133Z,18.97
2023-05-05T12:10:35.306Z,19.16
2023-05-05T12:13:03.671Z,18.93
2023-05-05T12:15:33.834Z,19.10
2023-05-05T12:18:10.908Z,18.43
2023-05-05T12:20:40.993Z,18.48
2023-05-05T12:23:12.628Z,18.23
2023-05-05T12:25:41.902Z,18.32
2023-05-05T12:28:10.953Z,18.39
2023-05-05T12:30:39.640Z,17.98
2023-05-05T12:33:09.533Z,18.00
2023-05-05T12:35:38.761Z,18.37
2023-05-05T12:38:07.376Z,18.46
2023-05-05T12:40:48.523Z,19.21
2023-05-05T12:43:27.538Z,19.42
2023-05-05T12:46:08.198Z,18.60
2023-05-05T12:48:38.186Z,19.23
2023-05-05T12:51:18.754Z,19.82
2023-05-05T12:53:49.171Z,19.51
2023-05-05T12:56:39.586Z,19.05
2023-05-05T12:59:09.394Z,18.95
2023-05-05T13:01:39.494Z,18.72
2023-05-05T13:04:13.077Z,19.01
2023-05-05T13:06:43.126Z,19.58
2023-05-05T13:09:24.931Z,19.42
2023-05-05T13:11:56.092Z,19.19
2023-05-05T13:14:25.718Z,19.89
2023-05-05T13:16:54.790Z,20.26
2023-05-05T13:19:25.087Z,20.25
2023-05-05T13:21:53.488Z,20.45
2023-05-05T13:24:28.799Z,20.10
2023-05-05T13:27:09.243Z,20.04
2023-05-05T13:29:37.762Z,19.84
2023-05-05T13:32:08.323Z,19.86
2023-05-05T13:34:39.540Z,20.04
2023-05-05T13:37:08.921Z,20.15
2023-05-05T13:39:37.420Z,20.37
2023-05-05T13:42:08.207Z,20.99
2023-05-05T13:44:39.291Z,21.55
2023-05-05T13:47:08.009Z,21.20
2023-05-05T13:49:37.840Z,20.60
2023-05-05T13:52:08.263Z,20.11
2023-05-05T13:54:37.097Z,19.70
2023-05-05T13:57:08.492Z,20.09
2023-05-05T13:59:38.417Z,20.27
2023-05-05T14:02:08.012Z,20.87
2023-05-05T14:04:37.931Z,21.39
2023-05-05T14:07:07.328Z,20.87
2023-05-05T14:09:35.972Z,21.16
2023-05-05T14:12:04.577Z,20.79
2023-05-05T14:14:33.077Z,20.31
2023-05-05T14:17:03.162Z,19.91
2023-05-05T14:19:32.194Z,20.05
2023-05-05T14:22:01.861Z,21.33
2023-05-05T14:24:30.297Z,21.78
2023-05-05T14:26:58.742Z,22.23
2023-05-05T14:29:27.368Z,22.58
2023-05-05T14:58:40.189Z,23.20
2023-05-05T15:08:14.481Z,24.05
2023-05-05T15:18:24.388Z,23.47
2023-05-05T15:21:33.228Z,23.54
2023-05-05T15:24:31.933Z,23.84
2023-05-05T15:34:58.764Z,24.98
2023-05-05T15:37:30.283Z,25.48
2023-05-05T15:39:58.672Z,25.34
2023-05-05T15:42:27.228Z,25.55
2023-05-05T15:44:56.016Z,25.64
2023-05-05T15:47:24.625Z,25.38
2023-05-05T15:49:54.998Z,24.86
2023-05-05T15:52:23.794Z,25.01
2023-05-05T15:54:52.580Z,24.40
2023-05-05T15:57:21.727Z,24.15
2023-05-05T15:59:56.156Z,24.37
2023-05-05T16:02:24.793Z,24.44
2023-05-05T16:04:55.141Z,24.29
2023-05-05T16:07:23.655Z,24.31
2023-05-05T16:09:52.024Z,24.79
2023-05-05T16:12:21.213Z,24.95
2023-05-05T16:14:50.900Z,24.27
2023-05-05T16:17:25.264Z,24.21
2023-05-05T16:19:56.080Z,24.87
2023-05-05T16:22:24.627Z,24.63
2023-05-05T16:24:53.396Z,24.53
2023-05-05T16:27:22.079Z,24.23
2023-05-05T16:29:51.223Z,23.46
2023-05-05T16:32:19.830Z,22.92
2023-05-05T16:34:48.492Z,23.08
2023-05-05T16:37:18.408Z,23.96
2023-05-05T16:39:46.889Z,24.52
2023-05-05T16:42:20.961Z,24.90
2023-05-05T16:44:49.905Z,25.14
2023-05-05T16:47:18.380Z,25.69
2023-05-05T16:49:46.853Z,25.05
2023-05-05T16:52:15.616Z,25.18
2023-05-05T16:54:45.584Z,25.63
2023-05-05T16:57:14.232Z,25.32
2023-05-05T16:59:47.041Z,25.55
2023-05-05T17:02:20.943Z,25.40
2023-05-05T17:04:50.229Z,24.67
2023-05-05T17:07:21.631Z,24.20
2023-05-05T17:09:52.190Z,24.98
2023-05-05T17:12:29.231Z,25.54
2023-05-05T17:15:00.089Z,24.56
2023-05-05T17:17:28.485Z,24.50
2023-05-05T17:20:01.674Z,24.32
2023-05-05T17:22:30.400Z,24.38
2023-05-05T17:25:00.199Z,24.73
2023-05-05T17:27:29.003Z,24.43
2023-05-05T17:29:57.314Z,24.25
2023-05-05T17:32:26.079Z,24.50
2023-05-05T17:34:54.694Z,24.63
2023-05-05T17:37:23.136Z,24.97
2023-05-05T17:39:51.658Z,24.92
2023-05-05T17:42:23.198Z,24.72
2023-05-05T17:44:52.045Z,25.00
2023-05-05T17:47:22.644Z,23.95
2023-05-05T17:49:51.520Z,24.09
2023-05-05T17:52:20.812Z,24.37
2023-05-05T17:54:49.379Z,24.95
2023-05-05T17:57:21.304Z,24.06
2023-05-05T17:59:53.946Z,23.48
2023-05-05T18:02:22.748Z,23.82
2023-05-05T18:04:51.454Z,24.39
2023-05-05T18:07:19.751Z,24.72
2023-05-05T18:09:48.199Z,24.46
2023-05-05T18:12:17.551Z,23.30
2023-05-05T18:14:47.318Z,23.64
2023-05-05T18:17:18.066Z,23.75
2023-05-05T18:19:49.118Z,23.59
2023-05-05T18:22:17.812Z,23.56
2023-05-05T18:24:46.516Z,23.05
2023-05-05T18:27:15.161Z,22.78
2023-05-05T18:29:43.513Z,22.51
2023-05-05T18:32:12.301Z,22.42
2023-05-05T18:34:43.481Z,22.44
2023-05-05T18:37:13.386Z,22.47
2023-05-05T18:39:45.311Z,22.01
2023-05-05T18:42:14.495Z,22.04
2023-05-05T18:44:42.992Z,22.62
2023-05-05T18:47:12.016Z,22.32
2023-05-05T18:49:40.627Z,22.06
2023-05-05T18:52:10.994Z,20.94
2023-05-05T18:54:51.862Z,20.34
2023-05-05T18:57:26.304Z,20.42
2023-05-05T18:59:56.924Z,20.79
2023-05-05T19:02:27.604Z,20.99
2023-05-05T19:04:56.375Z,20.88
2023-05-05T19:07:35.017Z,20.15
2023-05-05T19:10:06.270Z,20.22
2023-05-05T19:12:34.912Z,19.99
2023-05-05T19:15:14.839Z,19.79
2023-05-05T19:17:51.408Z,19.17
2023-05-05T19:20:21.799Z,18.61
2023-05-05T19:22:53.235Z,17.97
2023-05-05T19:25:21.885Z,17.46
2023-05-05T19:27:50.403Z,17.21
2023-05-05T19:30:19.233Z,16.97
2023-05-05T19:32:48.009Z,16.88
2023-05-05T19:35:20.003Z,16.78
2023-05-05T19:37:48.861Z,16.73
2023-05-05T19:40:18.765Z,16.66
2023-05-05T19:42:47.100Z,16.46
2023-05-05T19:45:15.763Z,16.33
2023-05-05T19:47:46.715Z,16.51
2023-05-05T19:50:16.682Z,16.21
2023-05-05T19:52:45.613Z,16.06
2023-05-05T19:55:14.101Z,15.99
2023-05-05T19:57:44.007Z,15.95
2023-05-05T20:00:13.930Z,15.80
2023-05-05T20:02:46.128Z,15.67
2023-05-05T20:05:16.508Z,15.78
2023-05-05T20:07:45.148Z,15.46
2023-05-05T20:10:14.399Z,15.38
2023-05-05T20:12:48.168Z,15.36
2023-05-05T20:15:18.962Z,15.30
2023-05-05T20:17:48.333Z,15.33
2023-05-05T20:20:18.991Z,15.30
2023-05-05T20:22:48.120Z,15.35
2023-05-05T20:25:17.309Z,15.30
2023-05-05T20:27:47.360Z,15.32
2023-05-05T20:30:16.281Z,15.36
2023-05-05T20:32:44.744Z,15.08
2023-05-05T20:35:13.442Z,15.05
2023-05-05T20:37:45.148Z,15.07
2023-05-05T20:40:14.711Z,15.04
2023-05-05T20:42:47.909Z,14.98
2023-05-05T20:45:16.721Z,15.04
2023-05-05T20:47:45.431Z,14.96
2023-05-05T20:50:14.138Z,14.88
2023-05-05T20:52:43.648Z,14.77
2023-05-05T20:55:12.117Z,14.87
2023-05-05T20:57:48.673Z,14.68
2023-05-05T21:00:17.644Z,14.82
2023-05-05T21:02:48.099Z,14.79
2023-05-05T21:05:17.955Z,14.74
2023-05-05T21:07:46.634Z,14.73
2023-05-05T21:10:15.079Z,14.73
2023-05-05T21:12:45.870Z,14.74
2023-05-05T21:15:16.953Z,14.78
2023-05-05T21:17:48.364Z,14.74
2023-05-05T21:20:19.306Z,14.71
2023-05-05T21:22:47.738Z,14.71
2023-05-05T21:25:18.150Z,14.73
2023-05-05T21:27:48.671Z,14.83
2023-05-05T21:30:18.635Z,14.91
2023-05-05T21:32:55.200Z,14.90
2023-05-05T21:35:24.767Z,14.72
2023-05-05T21:37:53.172Z,14.70
2023-05-05T21:40:22.726Z,14.70
2023-05-05T21:42:51.161Z,14.60
2023-05-05T21:45:21.502Z,14.60
2023-05-05T21:47:51.025Z,14.57
2023-05-05T21:50:19.654Z,14.66
2023-05-05T21:52:48.465Z,14.59
2023-05-05T21:55:17.216Z,14.60
2023-05-05T21:57:46.468Z,14.49
2023-05-05T22:00:17.559Z,14.56
2023-05-05T22:02:50.202Z,14.45
2023-05-05T22:05:22.095Z,14.37
2023-05-05T22:07:52.591Z,14.34
2023-05-05T22:10:21.683Z,14.35
2023-05-05T22:12:51.410Z,14.45
2023-05-05T22:15:20.552Z,14.49
2023-05-05T22:17:50.590Z,14.54
2023-05-05T22:20:19.578Z,14.52
2023-05-05T22:22:48.141Z,14.58
2023-05-05T22:25:17.973Z,14.60
2023-05-05T22:27:46.798Z,14.60
2023-05-05T22:30:16.888Z,14.60
2023-05-05T22:32:46.923Z,14.53
2023-05-05T22:35:18.723Z,14.52
2023-05-05T22:37:49.081Z,14.50
2023-05-05T22:40:17.970Z,14.44
2023-05-05T22:42:49.035Z,14.38
2023-05-05T22:45:18.692Z,14.32
2023-05-05T22:47:47.124Z,14.33
2023-05-05T22:50:15.718Z,14.22
2023-05-05T22:52:45.817Z,14.29
2023-05-05T22:55:16.260Z,14.26
2023-05-05T22:57:46.617Z,14.31
2023-05-05T23:00:23.068Z,14.28
2023-05-05T23:02:51.905Z,14.22
2023-05-05T23:05:20.574Z,14.14
2023-05-05T23:07:50.665Z,14.11
2023-05-05T23:10:19.300Z,14.09
2023-05-05T23:12:47.765Z,13.95
2023-05-05T23:15:25.290Z,13.90
2023-05-05T23:17:53.865Z,13.77
2023-05-05T23:20:22.444Z,13.76
2023-05-05T23:22:54.642Z,13.75
2023-05-05T23:25:23.575Z,13.81
2023-05-05T23:27:53.283Z,13.64
2023-05-05T23:30:24.895Z,13.69
2023-05-05T23:32:54.972Z,13.82
2023-05-05T23:35:23.868Z,13.84
2023-05-05T23:37:54.601Z,13.91
2023-05-05T23:40:24.162Z,13.93
2023-05-05T23:42:52.792Z,13.91
2023-05-05T23:45:21.161Z,13.73
2023-05-05T23:47:50.799Z,13.73
2023-05-05T23:50:19.322Z,13.71
2023-05-05T23:52:47.772Z,13.66
2023-05-05T23:55:17.814Z,13.52
2023-05-05T23:57:46.946Z,13.49
